createdAt,value
2022-12-29T00:02:28.497Z,5.60
2022-12-29T00:09:48.516Z,5.65
2022-12-29T00:17:06.944Z,5.58
2022-12-29T00:24:43.028Z,5.60
2022-12-29T00:32:19.971Z,5.71
2022-12-29T00:39:56.055Z,5.93
2022-12-29T00:47:15.966Z,5.95
2022-12-29T00:54:38.136Z,6.08
2022-12-29T01:01:57.516Z,6.13
2022-12-29T01:09:35.792Z,6.12
2022-12-29T01:16:54.422Z,6.07
2022-12-29T01:24:12.884Z,6.01
2022-12-29T01:31:32.620Z,5.90
2022-12-29T01:38:51.026Z,5.82
2022-12-29T01:46:18.789Z,5.72
2022-12-29T01:53:43.045Z,5.70
2022-12-29T02:01:02.009Z,5.74
2022-12-29T02:08:21.115Z,5.67
2022-12-29T02:15:54.023Z,5.60
2022-12-29T02:23:33.389Z,5.56
2022-12-29T02:31:00.545Z,5.64
2022-12-29T02:38:23.218Z,5.61
2022-12-29T02:45:46.007Z,5.81
2022-12-29T02:53:09.092Z,5.84
2022-12-29T03:00:27.407Z,5.73
2022-12-29T03:07:54.587Z,5.77
2022-12-29T03:15:37.822Z,5.73
2022-12-29T03:23:01.512Z,5.63
2022-12-29T03:30:29.160Z,5.66
2022-12-29T03:37:52.759Z,5.58
2022-12-29T03:45:23.911Z,5.52
2022-12-29T03:52:44.110Z,5.62
2022-12-29T04:00:02.643Z,5.61
2022-12-29T04:07:22.621Z,5.58
2022-12-29T04:14:45.319Z,5.63
2022-12-29T04:22:04.120Z,5.66
2022-12-29T04:29:23.174Z,5.74
2022-12-29T04:37:03.151Z,5.73
2022-12-29T04:44:22.232Z,5.77
2022-12-29T04:52:06.383Z,5.85
2022-12-29T04:59:25.907Z,5.85
2022-12-29T05:06:48.846Z,6.03
2022-12-29T05:14:10.904Z,6.00
2022-12-29T05:21:29.969Z,5.95
2022-12-29T05:28:50.516Z,5.98
2022-12-29T05:36:13.616Z,6.20
2022-12-29T05:43:37.572Z,6.40
2022-12-29T05:51:06.984Z,6.51
2022-12-29T05:58:39.001Z,6.54
2022-12-29T06:05:57.939Z,6.41
2022-12-29T06:13:17.890Z,6.27
2022-12-29T06:20:39.440Z,6.22
2022-12-29T06:28:00.040Z,6.28
2022-12-29T06:35:18.786Z,6.29
2022-12-29T06:42:42.480Z,6.34
2022-12-29T06:50:19.555Z,6.44
2022-12-29T06:57:37.904Z,6.44
2022-12-29T07:04:57.904Z,6.34
2022-12-29T07:12:16.484Z,6.27
2022-12-29T07:19:38.137Z,6.23
2022-12-29T07:26:58.156Z,6.23
2022-12-29T07:34:16.943Z,6.26
2022-12-29T07:41:35.843Z,6.30
2022-12-29T07:48:56.221Z,6.35
2022-12-29T07:56:14.632Z,6.47
2022-12-29T08:03:33.776Z,6.41
2022-12-29T08:10:53.616Z,6.52
2022-12-29T08:18:19.929Z,6.81
2022-12-29T08:25:39.760Z,6.74
2022-12-29T08:32:59.492Z,6.87
2022-12-29T08:40:18.484Z,6.92
2022-12-29T08:47:39.890Z,7.15
2022-12-29T08:54:59.673Z,7.10
2022-12-29T09:02:23.871Z,7.08
2022-12-29T09:09:43.309Z,7.32
2022-12-29T09:17:20.685Z,7.37
2022-12-29T09:24:39.242Z,7.49
2022-12-29T09:31:57.410Z,7.52
2022-12-29T09:39:17.254Z,7.70
2022-12-29T09:46:37.794Z,8.11
2022-12-29T09:53:59.384Z,8.20
2022-12-29T10:01:27.464Z,8.26
2022-12-29T10:08:52.903Z,8.23
2022-12-29T10:16:14.251Z,8.26
2022-12-29T10:23:37.663Z,8.37
2022-12-29T10:30:56.840Z,8.45
2022-12-29T10:38:20.560Z,8.49
2022-12-29T10:45:41.188Z,8.69
2022-12-29T10:53:02.453Z,9.33
2022-12-29T11:00:22.666Z,10.00
2022-12-29T11:07:42.896Z,10.21
2022-12-29T11:15:14.354Z,10.40
2022-12-29T11:22:32.771Z,10.44
2022-12-29T11:29:53.377Z,10.41
2022-12-29T11:37:14.754Z,10.45
2022-12-29T11:44:39.192Z,10.31
2022-12-29T11:51:59.188Z,10.31
2022-12-29T11:59:47.652Z,10.39
2022-12-29T12:07:15.443Z,10.40
2022-12-29T12:14:41.727Z,10.35
2022-12-29T12:22:32.243Z,10.32
2022-12-29T12:29:54.564Z,10.10
2022-12-29T12:37:33.479Z,10.05
2022-12-29T12:45:03.636Z,9.98
2022-12-29T12:52:28.661Z,9.88
2022-12-29T12:59:59.469Z,10.01
2022-12-29T13:07:24.958Z,10.27
2022-12-29T13:14:51.829Z,10.43
2022-12-29T13:22:19.072Z,10.30
2022-12-29T13:29:40.201Z,10.37
2022-12-29T13:37:01.045Z,10.35
2022-12-29T13:44:26.386Z,10.54
2022-12-29T13:51:45.924Z,10.83
2022-12-29T13:59:08.410Z,10.68
2022-12-29T14:06:29.318Z,10.31
2022-12-29T14:13:49.304Z,9.75
2022-12-29T14:21:13.364Z,9.06
2022-12-29T14:28:34.116Z,8.92
2022-12-29T14:35:53.614Z,8.92
2022-12-29T14:43:16.336Z,8.73
2022-12-29T14:50:41.221Z,8.63
2022-12-29T14:58:01.569Z,8.44
2022-12-29T15:05:30.181Z,8.23
2022-12-29T15:12:54.189Z,8.17
2022-12-29T15:20:28.870Z,7.89
2022-12-29T15:27:52.836Z,7.62
2022-12-29T15:35:33.034Z,7.41
2022-12-29T15:43:01.628Z,7.30
2022-12-29T15:50:25.528Z,7.18
2022-12-29T15:57:45.116Z,7.18
2022-12-29T16:05:17.560Z,7.11
2022-12-29T16:12:38.108Z,7.02
2022-12-29T16:20:00.614Z,7.04
2022-12-29T16:27:24.697Z,6.97
2022-12-29T16:34:46.824Z,7.07
2022-12-29T16:42:51.295Z,6.95
2022-12-29T16:50:14.865Z,6.90
2022-12-29T16:57:35.517Z,6.90
2022-12-29T17:04:55.300Z,6.87
2022-12-29T17:12:17.769Z,6.98
2022-12-29T17:19:38.551Z,6.89
2022-12-29T17:27:00.276Z,6.90
2022-12-29T17:34:18.539Z,6.83
2022-12-29T17:41:40.673Z,7.02
2022-12-29T17:49:01.142Z,7.11
2022-12-29T17:56:20.135Z,7.13
2022-12-29T18:03:41.258Z,7.18
2022-12-29T18:11:01.303Z,7.09
2022-12-29T18:18:21.577Z,6.99
2022-12-29T18:25:42.988Z,6.87
2022-12-29T18:33:03.341Z,6.85
2022-12-29T18:40:22.114Z,6.91
2022-12-29T18:47:40.416Z,6.91
2022-12-29T18:55:00.021Z,7.01
2022-12-29T19:02:18.766Z,7.01
2022-12-29T19:09:37.309Z,7.01
2022-12-29T19:16:57.705Z,7.05
2022-12-29T19:24:16.068Z,7.02
2022-12-29T19:31:35.090Z,6.95
2022-12-29T19:38:54.912Z,6.92
2022-12-29T19:46:17.681Z,6.84
2022-12-29T19:53:36.119Z,6.77
2022-12-29T20:00:55.983Z,6.70
2022-12-29T20:08:14.419Z,6.61
2022-12-29T20:15:32.735Z,6.46
2022-12-29T20:22:52.585Z,6.42
2022-12-29T20:30:11.563Z,6.17
2022-12-29T20:37:30.197Z,6.15
2022-12-29T20:44:50.962Z,6.12
2022-12-29T20:52:09.155Z,6.23
2022-12-29T20:59:28.603Z,6.31
2022-12-29T21:06:49.038Z,6.21
2022-12-29T21:14:07.394Z,6.08
2022-12-29T21:21:26.988Z,6.10
2022-12-29T21:28:47.437Z,6.04
2022-12-29T21:36:07.497Z,5.96
2022-12-29T21:43:25.955Z,5.97
2022-12-29T21:51:00.779Z,5.82
2022-12-29T21:58:36.287Z,5.70
2022-12-29T22:06:13.486Z,5.73
2022-12-29T22:13:32.662Z,5.73
2022-12-29T22:20:51.070Z,5.82
2022-12-29T22:28:10.964Z,5.82
2022-12-29T22:35:29.580Z,5.89
2022-12-29T22:42:47.836Z,5.81
2022-12-29T22:50:08.534Z,5.79
2022-12-29T22:57:26.895Z,5.91
2022-12-29T23:12:25.119Z,6.06
2022-12-29T23:19:43.465Z,6.12
2022-12-29T23:27:02.015Z,6.24
2022-12-29T23:34:21.899Z,6.28
2022-12-29T23:41:40.261Z,6.35
2022-12-29T23:48:58.523Z,6.36
2022-12-29T23:56:20.070Z,6.40
